createdAt,value
2022-10-26T00:01:26.515Z,100.00
2022-10-26T00:03:58.323Z,100.00
2022-10-26T00:06:28.914Z,100.00
2022-10-26T00:08:58.352Z,100.00
2022-10-26T00:11:26.599Z,100.00
2022-10-26T00:13:54.823Z,100.00
2022-10-26T00:16:27.372Z,100.00
2022-10-26T00:18:56.341Z,100.00
2022-10-26T00:21:24.556Z,100.00
2022-10-26T00:23:53.203Z,100.00
2022-10-26T00:26:21.419Z,100.00
2022-10-26T00:28:49.874Z,100.00
2022-10-26T00:31:18.162Z,100.00
2022-10-26T00:33:47.855Z,100.00
2022-10-26T00:36:17.099Z,100.00
2022-10-26T00:38:50.322Z,100.00
2022-10-26T00:41:20.310Z,100.00
2022-10-26T00:43:48.951Z,100.00
2022-10-26T00:46:21.428Z,100.00
2022-10-26T00:48:55.729Z,100.00
2022-10-26T00:51:32.566Z,100.00
2022-10-26T00:54:05.448Z,100.00
2022-10-26T00:56:34.903Z,100.00
2022-10-26T00:59:07.711Z,100.00
2022-10-26T01:01:40.512Z,100.00
2022-10-26T01:04:10.525Z,100.00
2022-10-26T01:06:39.558Z,100.00
2022-10-26T01:09:08.056Z,100.00
2022-10-26T01:11:36.310Z,100.00
2022-10-26T01:14:09.778Z,100.00
2022-10-26T01:16:54.610Z,100.00
2022-10-26T01:20:23.125Z,100.00
2022-10-26T01:22:58.859Z,100.00
2022-10-26T01:25:43.013Z,100.00
2022-10-26T01:28:29.806Z,100.00
2022-10-26T01:31:02.714Z,100.00
2022-10-26T01:33:39.468Z,100.00
2022-10-26T01:36:14.476Z,100.00
2022-10-26T01:38:54.472Z,100.00
2022-10-26T01:41:29.609Z,100.00
2022-10-26T01:44:03.076Z,100.00
2022-10-26T01:46:39.593Z,100.00
2022-10-26T01:49:12.144Z,100.00
2022-10-26T01:51:44.631Z,100.00
2022-10-26T01:54:12.989Z,100.00
2022-10-26T01:56:44.015Z,100.00
2022-10-26T01:59:36.337Z,100.00
2022-10-26T02:02:43.562Z,100.00
2022-10-26T02:05:34.369Z,100.00
2022-10-26T02:08:29.457Z,100.00
2022-10-26T02:11:13.195Z,100.00
2022-10-26T02:13:48.305Z,100.00
2022-10-26T02:16:23.914Z,100.00
2022-10-26T02:19:02.464Z,100.00
2022-10-26T02:21:39.340Z,100.00
2022-10-26T02:24:12.074Z,100.00
2022-10-26T02:26:42.931Z,100.00
2022-10-26T02:29:15.221Z,100.00
2022-10-26T02:31:45.330Z,100.00
2022-10-26T02:34:18.720Z,100.00
2022-10-26T02:36:50.602Z,100.00
2022-10-26T02:39:21.309Z,100.00
2022-10-26T02:41:51.927Z,100.00
2022-10-26T02:44:26.613Z,100.00
2022-10-26T02:46:56.887Z,100.00
2022-10-26T02:49:26.983Z,100.00
2022-10-26T02:52:03.213Z,100.00
2022-10-26T02:54:38.283Z,100.00
2022-10-26T02:57:13.673Z,100.00
2022-10-26T02:59:47.603Z,100.00
2022-10-26T03:02:17.995Z,100.00
2022-10-26T03:04:50.466Z,100.00
2022-10-26T03:07:23.399Z,100.00
2022-10-26T03:09:51.714Z,100.00
2022-10-26T03:12:19.933Z,100.00
2022-10-26T03:14:48.083Z,100.00
2022-10-26T03:17:16.243Z,100.00
2022-10-26T03:19:44.468Z,100.00
2022-10-26T03:22:14.145Z,100.00
2022-10-26T03:24:42.401Z,100.00
2022-10-26T03:27:11.021Z,100.00
2022-10-26T03:29:39.210Z,100.00
2022-10-26T03:32:07.939Z,100.00
2022-10-26T03:34:36.186Z,100.00
2022-10-26T03:37:04.336Z,100.00
2022-10-26T03:39:33.935Z,100.00
2022-10-26T03:42:02.128Z,100.00
2022-10-26T03:44:31.143Z,100.00
2022-10-26T03:46:59.374Z,100.00
2022-10-26T03:49:27.621Z,100.00
2022-10-26T03:51:55.800Z,100.00
2022-10-26T03:54:25.060Z,100.00
2022-10-26T03:56:55.349Z,100.00
2022-10-26T03:59:23.770Z,100.00
2022-10-26T04:01:55.387Z,100.00
2022-10-26T04:04:35.804Z,100.00
2022-10-26T04:07:04.146Z,100.00
2022-10-26T04:09:32.366Z,100.00
2022-10-26T04:12:01.925Z,100.00
2022-10-26T04:14:30.122Z,100.00
2022-10-26T04:16:58.291Z,100.00
2022-10-26T04:19:26.498Z,100.00
2022-10-26T04:21:54.706Z,100.00
2022-10-26T04:24:22.905Z,100.00
2022-10-26T04:26:51.104Z,100.00
2022-10-26T04:29:20.677Z,100.00
2022-10-26T04:31:49.525Z,100.00
2022-10-26T04:34:17.760Z,100.00
2022-10-26T04:36:45.924Z,100.00
2022-10-26T04:39:14.111Z,100.00
2022-10-26T04:41:42.273Z,100.00
2022-10-26T04:44:10.576Z,100.00
2022-10-26T04:46:40.151Z,100.00
2022-10-26T04:49:08.414Z,100.00
2022-10-26T04:51:36.615Z,100.00
2022-10-26T04:54:05.091Z,100.00
2022-10-26T04:56:34.135Z,100.00
2022-10-26T04:59:03.046Z,100.00
2022-10-26T05:01:32.649Z,100.00
2022-10-26T05:04:02.313Z,100.00
2022-10-26T05:06:31.205Z,100.00
2022-10-26T05:08:59.390Z,100.00
2022-10-26T05:11:27.568Z,100.00
2022-10-26T05:13:55.811Z,100.00
2022-10-26T05:16:24.027Z,100.00
2022-10-26T05:18:52.245Z,100.00
2022-10-26T05:21:21.851Z,100.00
2022-10-26T05:23:52.536Z,100.00
2022-10-26T05:26:21.400Z,100.00
2022-10-26T05:28:49.865Z,100.00
2022-10-26T05:31:18.191Z,100.00
2022-10-26T05:33:49.849Z,100.00
2022-10-26T05:36:18.942Z,100.00
2022-10-26T05:38:48.687Z,100.00
2022-10-26T05:41:16.928Z,100.00
2022-10-26T05:43:45.133Z,100.00
2022-10-26T05:46:13.350Z,100.00
2022-10-26T05:48:41.603Z,100.00
2022-10-26T05:51:10.713Z,100.00
2022-10-26T05:53:39.352Z,100.00
2022-10-26T05:56:20.854Z,100.00
2022-10-26T05:58:50.127Z,100.00
2022-10-26T06:01:30.330Z,100.00
2022-10-26T06:07:18.133Z,100.00
2022-10-26T06:09:48.370Z,100.00
2022-10-26T06:12:19.863Z,100.00
2022-10-26T06:14:49.190Z,100.00
2022-10-26T06:17:37.158Z,100.00
2022-10-26T06:20:22.634Z,100.00
2022-10-26T06:23:04.766Z,100.00
2022-10-26T06:25:44.480Z,100.00
2022-10-26T06:28:26.561Z,100.00
2022-10-26T06:30:54.959Z,100.00
2022-10-26T06:33:30.984Z,100.00
2022-10-26T06:36:17.452Z,100.00
2022-10-26T06:38:46.747Z,100.00
2022-10-26T06:41:18.910Z,100.00
2022-10-26T06:43:54.013Z,100.00
2022-10-26T06:46:33.961Z,100.00
2022-10-26T06:49:14.299Z,100.00
2022-10-26T06:51:50.319Z,100.00
2022-10-26T06:54:25.182Z,100.00
2022-10-26T06:56:55.192Z,100.00
2022-10-26T06:59:37.899Z,100.00
2022-10-26T07:02:06.942Z,100.00
2022-10-26T07:04:35.242Z,100.00
2022-10-26T07:07:10.175Z,100.00
2022-10-26T07:09:39.936Z,100.00
2022-10-26T07:12:08.396Z,100.00
2022-10-26T07:14:37.953Z,100.00
2022-10-26T07:17:07.471Z,100.00
2022-10-26T07:19:35.728Z,100.00
2022-10-26T07:22:04.306Z,100.00
2022-10-26T07:24:32.788Z,100.00
2022-10-26T07:27:00.969Z,100.00
2022-10-26T07:29:29.718Z,100.00
2022-10-26T07:32:01.619Z,100.00
2022-10-26T07:34:29.835Z,100.00
2022-10-26T07:37:00.230Z,100.00
2022-10-26T07:39:28.698Z,100.00
2022-10-26T07:41:56.882Z,100.00
2022-10-26T07:44:25.067Z,100.00
2022-10-26T07:46:53.303Z,100.00
2022-10-26T07:49:26.102Z,100.00
2022-10-26T07:51:56.047Z,100.00
2022-10-26T07:54:24.347Z,100.00
2022-10-26T07:56:52.726Z,100.00
2022-10-26T07:59:20.997Z,100.00
2022-10-26T08:01:49.239Z,100.00
2022-10-26T08:04:26.030Z,100.00
2022-10-26T08:06:54.699Z,100.00
2022-10-26T08:09:22.886Z,100.00
2022-10-26T08:11:51.470Z,100.00
2022-10-26T08:14:19.688Z,100.00
2022-10-26T08:16:50.229Z,100.00
2022-10-26T08:19:18.468Z,100.00
2022-10-26T08:21:48.015Z,100.00
2022-10-26T08:24:16.256Z,100.00
2022-10-26T08:26:44.765Z,100.00
2022-10-26T08:29:12.984Z,100.00
2022-10-26T08:31:41.214Z,100.00
2022-10-26T08:34:10.242Z,100.00
2022-10-26T08:36:38.469Z,100.00
2022-10-26T08:39:08.133Z,100.00
2022-10-26T08:41:39.845Z,100.00
2022-10-26T08:44:27.858Z,100.00
2022-10-26T08:47:02.248Z,100.00
2022-10-26T08:49:36.781Z,100.00
2022-10-26T08:52:07.755Z,100.00
2022-10-26T08:54:42.002Z,100.00
2022-10-26T08:57:22.022Z,100.00
2022-10-26T08:59:57.323Z,100.00
2022-10-26T09:02:25.802Z,100.00
2022-10-26T09:04:55.363Z,100.00
2022-10-26T09:07:53.012Z,100.00
2022-10-26T09:10:40.558Z,100.00
2022-10-26T09:13:24.775Z,100.00
2022-10-26T09:16:04.507Z,100.00
2022-10-26T09:21:39.847Z,100.00
2022-10-26T09:24:16.171Z,100.00
2022-10-26T09:26:55.629Z,100.00
2022-10-26T09:29:28.890Z,100.00
2022-10-26T09:31:58.718Z,100.00
2022-10-26T09:34:33.001Z,100.00
2022-10-26T09:37:01.924Z,100.00
2022-10-26T09:39:43.547Z,100.00
2022-10-26T09:42:20.429Z,100.00
2022-10-26T09:44:55.551Z,100.00
2022-10-26T09:47:34.678Z,100.00
2022-10-26T09:50:17.328Z,100.00
2022-10-26T09:52:45.664Z,100.00
2022-10-26T09:55:14.681Z,100.00
2022-10-26T09:57:47.771Z,100.00
2022-10-26T10:00:18.413Z,99.81
2022-10-26T10:02:52.436Z,99.76
2022-10-26T10:05:50.274Z,97.49
2022-10-26T10:08:21.789Z,97.26
2022-10-26T10:11:01.889Z,96.45
2022-10-26T10:13:34.464Z,96.03
2022-10-26T10:16:11.685Z,96.29
2022-10-26T10:18:41.632Z,97.47
2022-10-26T10:21:11.278Z,97.08
2022-10-26T10:23:51.942Z,95.71
2022-10-26T10:26:20.676Z,95.33
2022-10-26T10:29:01.063Z,95.12
2022-10-26T10:31:31.188Z,95.28
2022-10-26T10:33:59.591Z,96.15
2022-10-26T10:36:30.715Z,95.45
2022-10-26T10:38:59.064Z,96.29
2022-10-26T10:41:30.492Z,96.23
2022-10-26T10:44:07.482Z,97.05
2022-10-26T10:46:37.685Z,96.46
2022-10-26T10:49:10.198Z,94.89
2022-10-26T10:51:41.448Z,95.06
2022-10-26T10:54:24.196Z,94.73
2022-10-26T10:56:55.305Z,95.03
2022-10-26T10:59:54.356Z,96.01
2022-10-26T11:02:55.246Z,95.28
2022-10-26T11:05:49.720Z,94.83
2022-10-26T11:08:24.559Z,92.61
2022-10-26T11:11:00.304Z,92.55
2022-10-26T11:13:35.788Z,90.53
2022-10-26T11:16:13.462Z,90.44
2022-10-26T11:18:45.528Z,89.80
2022-10-26T11:21:26.680Z,88.34
2022-10-26T11:24:11.079Z,87.45
2022-10-26T11:26:46.658Z,88.08
2022-10-26T11:29:32.772Z,86.59
2022-10-26T11:32:12.419Z,86.20
2022-10-26T11:34:47.767Z,85.73
2022-10-26T11:37:25.125Z,85.11
2022-10-26T11:40:03.885Z,84.23
2022-10-26T11:42:37.644Z,84.46
2022-10-26T11:45:17.240Z,82.23
2022-10-26T11:47:53.766Z,81.49
2022-10-26T11:50:26.792Z,81.27
2022-10-26T11:53:01.565Z,80.82
2022-10-26T11:55:31.200Z,79.63
2022-10-26T11:58:00.181Z,79.19
2022-10-26T12:00:29.187Z,78.74
2022-10-26T12:03:05.536Z,79.21
2022-10-26T12:05:44.537Z,78.66
2022-10-26T12:08:19.823Z,78.60
2022-10-26T12:10:53.963Z,78.37
2022-10-26T12:13:31.585Z,78.65
2022-10-26T12:16:07.198Z,78.20
2022-10-26T12:18:55.176Z,77.89
2022-10-26T12:21:29.600Z,77.33
2022-10-26T12:24:00.465Z,77.19
2022-10-26T12:26:57.302Z,76.50
2022-10-26T12:29:38.674Z,77.55
2022-10-26T12:32:56.313Z,76.05
2022-10-26T12:35:46.352Z,77.28
2022-10-26T12:38:58.386Z,76.40
2022-10-26T12:41:27.963Z,75.51
2022-10-26T12:44:08.996Z,74.86
2022-10-26T12:46:42.603Z,74.03
2022-10-26T12:50:04.775Z,74.91
2022-10-26T12:52:49.517Z,75.92
2022-10-26T12:55:56.473Z,75.12
2022-10-26T12:59:12.886Z,76.43
2022-10-26T13:02:05.598Z,76.21
2022-10-26T13:05:08.773Z,73.85
2022-10-26T13:07:39.016Z,73.24
2022-10-26T13:10:21.770Z,73.26
2022-10-26T13:12:53.941Z,73.38
2022-10-26T13:15:26.405Z,72.94
2022-10-26T13:18:00.406Z,73.22
2022-10-26T13:20:30.638Z,72.14
2022-10-26T13:22:59.287Z,71.33
2022-10-26T13:25:32.155Z,72.07
2022-10-26T13:28:07.002Z,71.58
2022-10-26T13:30:48.158Z,72.04
2022-10-26T13:33:24.862Z,72.77
2022-10-26T13:35:56.910Z,72.85
2022-10-26T13:38:32.231Z,71.15
2022-10-26T13:41:18.382Z,72.61
2022-10-26T13:43:48.160Z,73.47
2022-10-26T13:46:27.888Z,73.38
2022-10-26T13:49:06.039Z,73.96
2022-10-26T13:51:42.102Z,71.93
2022-10-26T13:54:24.039Z,72.35
2022-10-26T13:57:11.669Z,73.00
2022-10-26T13:59:44.757Z,73.38
2022-10-26T14:02:24.400Z,73.27
2022-10-26T14:05:00.927Z,74.04
2022-10-26T14:07:38.027Z,74.24
2022-10-26T14:10:07.383Z,74.57
2022-10-26T14:12:37.072Z,74.09
2022-10-26T14:15:09.003Z,74.83
2022-10-26T14:17:37.198Z,75.51
2022-10-26T14:20:06.938Z,75.85
2022-10-26T14:22:35.434Z,76.49
2022-10-26T14:25:03.665Z,77.15
2022-10-26T14:27:40.003Z,76.50
2022-10-26T14:30:24.656Z,77.72
2022-10-26T14:32:53.966Z,77.43
2022-10-26T14:35:26.850Z,77.44
2022-10-26T14:37:58.297Z,78.21
2022-10-26T14:40:29.741Z,77.93
2022-10-26T14:43:01.905Z,78.75
2022-10-26T14:45:48.069Z,78.70
2022-10-26T14:48:24.915Z,79.16
2022-10-26T14:51:12.769Z,79.45
2022-10-26T14:53:42.744Z,79.62
2022-10-26T14:56:24.345Z,78.73
2022-10-26T14:58:55.081Z,79.20
2022-10-26T15:01:31.848Z,79.77
2022-10-26T15:04:04.972Z,79.92
2022-10-26T15:06:39.533Z,79.86
2022-10-26T15:09:08.276Z,78.77
2022-10-26T15:11:42.926Z,77.38
2022-10-26T15:14:14.484Z,75.85
2022-10-26T15:16:42.707Z,75.96
2022-10-26T15:19:15.115Z,75.38
2022-10-26T15:21:48.591Z,76.03
2022-10-26T15:24:34.643Z,74.77
2022-10-26T15:27:13.652Z,75.03
2022-10-26T15:29:45.779Z,74.13
2022-10-26T15:32:28.740Z,73.50
2022-10-26T15:35:27.866Z,75.24
2022-10-26T15:37:57.361Z,74.59
2022-10-26T15:40:27.661Z,74.05
2022-10-26T15:43:00.062Z,74.81
2022-10-26T15:45:32.983Z,76.18
2022-10-26T15:48:25.439Z,77.59
2022-10-26T15:50:54.222Z,78.48
2022-10-26T15:53:27.394Z,78.38
2022-10-26T15:55:58.371Z,79.37
2022-10-26T15:58:32.306Z,79.77
2022-10-26T16:01:01.888Z,80.40
2022-10-26T16:03:30.691Z,81.11
2022-10-26T16:06:02.470Z,81.10
2022-10-26T16:08:32.571Z,81.50
2022-10-26T16:11:00.769Z,81.50
2022-10-26T16:13:30.601Z,82.24
2022-10-26T16:15:59.251Z,82.87
2022-10-26T16:18:29.070Z,83.50
2022-10-26T16:20:57.272Z,84.18
2022-10-26T16:23:25.481Z,84.97
2022-10-26T16:25:53.681Z,86.01
2022-10-26T16:28:21.943Z,86.26
2022-10-26T16:30:50.175Z,86.94
2022-10-26T16:33:18.399Z,87.64
2022-10-26T16:35:57.222Z,88.73
2022-10-26T16:38:26.545Z,88.54
2022-10-26T16:41:02.898Z,88.52
2022-10-26T16:43:33.601Z,88.98
2022-10-26T16:46:05.736Z,89.11
2022-10-26T16:48:36.329Z,89.21
2022-10-26T16:51:11.014Z,89.37
2022-10-26T16:53:40.029Z,89.93
2022-10-26T16:56:11.666Z,89.92
2022-10-26T16:58:41.339Z,90.13
2022-10-26T17:01:12.984Z,90.50
2022-10-26T17:03:41.395Z,90.67
2022-10-26T17:06:11.136Z,91.89
2022-10-26T17:08:39.615Z,92.17
2022-10-26T17:11:10.240Z,91.62
2022-10-26T17:13:39.644Z,92.65
2022-10-26T17:16:11.597Z,93.60
2022-10-26T17:18:41.351Z,93.47
2022-10-26T17:21:12.573Z,93.78
2022-10-26T17:23:41.078Z,95.11
2022-10-26T17:26:15.998Z,95.46
2022-10-26T17:28:44.251Z,94.75
2022-10-26T17:31:14.884Z,94.71
2022-10-26T17:33:45.181Z,94.62
2022-10-26T17:36:16.687Z,94.79
2022-10-26T17:38:45.134Z,95.08
2022-10-26T17:41:15.150Z,95.25
2022-10-26T17:43:46.207Z,96.19
2022-10-26T17:46:17.146Z,97.18
2022-10-26T17:48:45.802Z,97.42
2022-10-26T17:51:18.167Z,97.34
2022-10-26T17:53:49.738Z,96.83
2022-10-26T17:56:20.670Z,96.62
2022-10-26T17:58:53.050Z,96.84
2022-10-26T18:01:22.473Z,95.37
2022-10-26T18:03:59.634Z,95.83
2022-10-26T18:06:30.004Z,96.38
2022-10-26T18:08:59.006Z,95.84
2022-10-26T18:11:28.532Z,95.60
2022-10-26T18:13:58.131Z,96.71
2022-10-26T18:16:30.893Z,97.30
2022-10-26T18:19:02.217Z,98.49
2022-10-26T18:21:34.953Z,99.66
2022-10-26T18:24:07.064Z,99.95
2022-10-26T18:26:36.583Z,100.00
2022-10-26T18:29:06.259Z,100.00
2022-10-26T18:31:35.809Z,99.09
2022-10-26T18:34:06.542Z,99.84
2022-10-26T18:39:06.170Z,100.00
2022-10-26T18:41:34.712Z,100.00
2022-10-26T18:44:03.025Z,99.77
2022-10-26T18:46:33.975Z,99.75
2022-10-26T18:49:02.339Z,100.00
2022-10-26T18:51:34.025Z,100.00
2022-10-26T18:54:03.966Z,100.00
2022-10-26T18:56:32.536Z,100.00
2022-10-26T18:59:02.113Z,100.00
2022-10-26T19:01:32.644Z,100.00
2022-10-26T19:04:03.088Z,100.00
2022-10-26T19:06:33.572Z,100.00
2022-10-26T19:09:04.638Z,100.00
2022-10-26T19:11:33.449Z,100.00
2022-10-26T19:14:01.790Z,100.00
2022-10-26T19:16:45.326Z,100.00
2022-10-26T19:19:15.553Z,100.00
2022-10-26T19:21:44.286Z,100.00
2022-10-26T19:24:16.844Z,100.00
2022-10-26T19:26:51.667Z,100.00
2022-10-26T19:29:21.161Z,100.00
2022-10-26T19:31:53.216Z,100.00
2022-10-26T19:34:21.782Z,100.00
2022-10-26T19:36:50.225Z,100.00
2022-10-26T19:39:20.207Z,100.00
2022-10-26T19:41:48.945Z,100.00
2022-10-26T19:44:19.730Z,100.00
2022-10-26T19:46:49.145Z,100.00
2022-10-26T19:49:18.371Z,100.00
2022-10-26T19:51:47.879Z,100.00
2022-10-26T19:54:16.194Z,100.00
2022-10-26T19:56:45.917Z,100.00
2022-10-26T19:59:14.339Z,100.00
2022-10-26T20:01:42.744Z,100.00
2022-10-26T20:04:18.155Z,100.00
2022-10-26T20:07:12.174Z,98.64
2022-10-26T20:09:40.509Z,98.75
2022-10-26T20:12:12.654Z,99.87
2022-10-26T20:14:41.427Z,99.77
2022-10-26T20:17:09.772Z,100.00
2022-10-26T20:19:38.044Z,100.00
2022-10-26T20:22:06.432Z,100.00
2022-10-26T20:24:34.726Z,100.00
2022-10-26T20:27:03.082Z,100.00
2022-10-26T20:29:32.787Z,100.00
2022-10-26T20:32:01.512Z,100.00
2022-10-26T20:37:03.056Z,100.00
2022-10-26T20:39:32.192Z,100.00
2022-10-26T20:42:04.355Z,100.00
2022-10-26T20:44:41.149Z,100.00
2022-10-26T20:47:10.681Z,100.00
2022-10-26T20:49:39.822Z,100.00
2022-10-26T20:52:21.258Z,100.00
2022-10-26T20:54:56.659Z,100.00
2022-10-26T20:57:31.384Z,100.00
2022-10-26T21:00:07.412Z,100.00
2022-10-26T21:02:35.771Z,100.00
2022-10-26T21:05:04.342Z,100.00
2022-10-26T21:07:32.726Z,100.00
2022-10-26T21:10:01.018Z,100.00
2022-10-26T21:12:29.402Z,100.00
2022-10-26T21:14:57.716Z,100.00
2022-10-26T21:17:27.425Z,100.00
2022-10-26T21:19:55.721Z,100.00
2022-10-26T21:22:24.029Z,100.00
2022-10-26T21:24:52.644Z,100.00
2022-10-26T21:27:20.876Z,100.00
2022-10-26T21:29:49.114Z,100.00
2022-10-26T21:32:17.424Z,100.00
2022-10-26T21:34:46.946Z,99.65
2022-10-26T21:37:15.160Z,98.92
2022-10-26T21:39:43.389Z,99.11
2022-10-26T21:42:11.584Z,100.00
2022-10-26T21:44:41.280Z,100.00
2022-10-26T21:47:10.189Z,100.00
2022-10-26T21:49:38.474Z,100.00
2022-10-26T21:52:09.131Z,100.00
2022-10-26T21:54:37.252Z,100.00
2022-10-26T21:57:05.532Z,100.00
2022-10-26T21:59:33.763Z,100.00
2022-10-26T22:02:07.082Z,100.00
2022-10-26T22:04:35.467Z,100.00
2022-10-26T22:07:11.321Z,100.00
2022-10-26T22:09:49.402Z,100.00
2022-10-26T22:12:27.601Z,100.00
2022-10-26T22:14:55.746Z,100.00
2022-10-26T22:17:24.533Z,100.00
2022-10-26T22:19:52.659Z,100.00
2022-10-26T22:22:22.606Z,100.00
2022-10-26T22:24:50.794Z,100.00
2022-10-26T22:27:18.949Z,100.00
2022-10-26T22:29:47.302Z,100.00
2022-10-26T22:32:15.529Z,100.00
2022-10-26T22:34:44.153Z,100.00
2022-10-26T22:37:12.346Z,100.00
2022-10-26T22:39:41.875Z,100.00
2022-10-26T22:42:10.512Z,100.00
2022-10-26T22:44:38.755Z,100.00
2022-10-26T22:47:07.019Z,100.00
2022-10-26T22:49:35.215Z,100.00
2022-10-26T22:52:03.412Z,100.00
2022-10-26T22:54:31.688Z,100.00
2022-10-26T22:57:01.811Z,100.00
2022-10-26T22:59:30.010Z,100.00
2022-10-26T23:01:58.299Z,100.00
2022-10-26T23:04:26.627Z,100.00
2022-10-26T23:06:54.827Z,100.00
2022-10-26T23:09:23.025Z,100.00
2022-10-26T23:11:51.323Z,100.00
2022-10-26T23:14:20.875Z,100.00
2022-10-26T23:16:49.051Z,100.00
2022-10-26T23:19:17.465Z,100.00
2022-10-26T23:21:45.672Z,100.00
2022-10-26T23:24:13.875Z,100.00
2022-10-26T23:26:42.086Z,100.00
2022-10-26T23:29:10.269Z,100.00
2022-10-26T23:31:39.778Z,100.00
2022-10-26T23:34:07.938Z,100.00
2022-10-26T23:36:36.127Z,100.00
2022-10-26T23:39:04.312Z,100.00
2022-10-26T23:41:32.490Z,100.00
2022-10-26T23:44:00.836Z,100.00
2022-10-26T23:46:29.055Z,100.00
2022-10-26T23:48:58.845Z,100.00
2022-10-26T23:51:27.031Z,100.00
2022-10-26T23:53:55.515Z,100.00
2022-10-26T23:56:23.708Z,100.00
2022-10-26T23:58:51.921Z,100.00
